All DOT Data recorded in 2010

The two tables below show, in consecutive order, all of the data recorded at the Dutch Open Telescope (DOT) during the 2010 observing season from May 15 until the end of November.

The first table summarizes the data for each observing day on the older disks from 2010 May 15 - August 24. These data are on the first set of 28 disks (7 cameras X 4 disks per camera) that are now in storage and accessible by contacting Guus Sliepen.

The second table contains summary lines of the data from the second half of the observing season from 2010 Aug 25 through Nov 24. These data are on a second set of 28 disks currently in the computer that runs each camera. Data on these disks is readily accessible from the computer jeff and the cluster.

In both tables, the last column shows whether a quick-look movie has been made. All of the raw data in the tables have been frame-selected to choose one image out of a burst of 20 images having the highest contrast. The remaining images of lesser quality have been deleted except for those times designated for speckle reconstruction. In total there is storage available for ~180 hrs of speckle data.

There is also a despeckling log where only the data are listed which has been or will be despeckled in the near future.

CODE for file names for data:

 Date = date of observation
 Start, end = start and end time of observation in UT
 Dur = duration of observation in hrs
 Target = description of target, e.g. sun spot, prominence, flare, etc.
 Loc = location on disk
 Seeing = 1 (excellent), 2 (very good), 3 (moderate), 4 (bad), 5 (very bad)
 Status = HD (raw data on disk, frame selected and saved for application of 
          speckle reconstruction despeckled), HI, MED, and LO (priority assigned).  
          FS (frame selected only and other raw deleted), 
          DP (Fully Despeckeled, raw data deleted),  

During the observing season, the last row(s) is /are on nomination to be converted to Frame Selected data (FS), with all raw data deleted, unless specified within 3 days whether all or part of the data should be saved for speckle reconstruction.

=================================================================================

All DOT Data: first set of disks (2010 May 15 - Aug 24 in Consecutive Order)

date start end 4 despec Target Coord Seeing Status Remarks Movies
2010.05.15 17:11 18:11 none filament E66N22 fair PROM Team began
DOT training
2010.05.16 same as above fair
2010.05.16 10:56 none prom limb&disk T1 E11 S39 fair DOT training
12:29 none E62 N10
13:59 none E58 N07 DOT training
2010.05.18 ? 17:22 none NE filament E50 N07 fair DOT training
2010.05.19 9:05 9:15 none AsfilNEa T1 E54 N21 fair DOT training
09:22 09:32 0 AsfilNEb T1 E39 N08
10:02 10:12 0 AsfilNEc T1 E39 N08
10:17 10:27 0 AsfilNEc T1 E39 N08
11:15 11:25 0 AsfilNEd T1 E36 N06
11:35 11:45 0 AsfilNEa T1 E54 N21
11:57 12:07 0 AsfilNEb T1 E39 N08
12:14 12:24 0 AsfilNEc T1 E39 N08
12:28 12:38 0 AsfilNEd T1 E36 N06
2010.05.20 09:21 0 ea filament a T2 E28N13 DOT training
09:45 0 ea filament b T2
11:37 0 ea filament c T2
13:01 0 ea filament d T2
2010.05.21 08:26 08:30 0 NE Filament A T2 E29 N24 med-good DOT training
08:38 crash 0 NE Filament B T2 E26 S15
09:57 10:02 0 NE Filament C T2 E14 S15
10:04 10:14 0 NE Filament D T2 E10 N09
11:32 01:32 0 NE Filament E T2 E07 N04
DOT training
2010.05.22 11:51 15:56 0 S active region T3 E10 S16 fair small flare
2010.05.23 10:16 18:02 0 W31N34qufS T4 W31 N34 good DOT training
2010.05.24 08:30 0 S active region T3 W18 S15 fair DOT training
10:15 0 NW filament T4 W45 N34
17:01 17:26 0 NW filament T4 W50 N35
2010.05.25 - - - No Obs-cloudy DOT training
2010.05.26 08:17 09:51 best of 2.5m Q filament T5 W67 N19 good 2 PROM-Martin
2010.05.27 09:40 19:06 all NW filament T5 W54 N18 good 2 PROM-Martin
2010.05.28 08:01 17:16 best of 2.5m NW filament T5 W67 N19 good 2 PROM-Martin
2010.05.29 07:57 10:57 0 NW fil/prom T5 W77 N19 fair PROM-Pevtsov&Martin
11:16 19:05 0 NE filament T6 E04 N24 fair-good
2010.05.30 08:14 18:10 0 NC filament T6 W04 N24 fair PROM-Pevtsov
2010.05.31 08:07 17:55 0 NW filament T6 W16 N27 fair PROM-Pevtsov
2010.06.01 08:04 17:00 0 NW filament T6 W31`N27 fair PROM-Pevtsov
2010.06.02 07:48 19:04 0 NW filament T6 W38 N23 fair PROM-Pevtsov
2010-06-03 08:23 12:15 0 NW prominence T6 W08 N53 fair PROM-Pevtsov
12:22 19:22 0 NE prominence T7 E90 N30 poor
2010.06.04 07:51 08:51 all NW filament channel W19N51 1 HD PROM-Pevtsov quicklook
09:04 12:59 all NW filament channel W19N51 1 HD PROM-Pevtsov
13:18 18:59 best of 15m NW filament channel W19N51 1 HD PROM-Pevtsov
2010.06.05 07:41 09:50 all NE filament channel E38N32 1 HD PROM
2010.06.05 09:51 18:48 best of 15m NE filament channel E38N32 1 HD PROM-Pevtsov
2010.06.06 07:31 11:40 all NE filament channel E27N29 1 HD PROM quicklook
2010.06.06 11:50 18:53 best of 15m NE filament channel E27N29 1 HD PROM-Pevtsov
2010.06.07 07:29 09:31 all NE filament channel E16 N31 1 HD PROM quicklook
2010.06.07 09:46 19:17 best of 15m NE filament channel E16 N31 1 HD PROM-Pevtsov
2010.06.08 07:27 11:38 all NE filament channel E02 N32 1 HD PROM-Pevtsov quicklook
2010.06.08 12:01 13:01 best of 5m NE filament channel E02 N32 1 HD
2010.06.08 13:07 13:50 best of 5m New targets 5m ea 6 dif 1 HD
2010.06.08 13:56 14:56 best of 2.5m New target W40 S21 1 HD
2010.06.08 14:59 15:00 best of set Filament E11 N14 1 HD Qfil-small section
2010.06.08 15:19 19:00 all Filament W11 N23 1 HD
2010.06.09 07:28 18:52 0 9 filament targets dif 1 HD
2010.06.10 10:38 18:42 0 7 filament targets dif 1 HD set lengths 2-60 m
2010.06.11 07:37 12:48 best of 2.5m 6 filament targets dif 1 HD 8 sets on filaments 5-60m
2010.06.11 12:59 18:25 all high lat filament W30 N36 1 HD 5 sets of 60m ea
2010.06.12
2010.06.13
2010.06.14
2010.06.15
2010.06.16
2010.06.17
2010.06.18
2010.06.19
2010.06.20
2010.06.21
2010.06.22
2010.06.23 No obs closed
2010.06.24 No Obs closed
2010.06.25 No Obs closed
2010.06.26 No Obs closed
2010.06.27 No Obs closed
2010.06.28 No Obs closed
2010.06.29 No Obs closed
2010.06.30 No Obs closed
2010.07.01 No Obs closed
2010.07.02 No Obs closed
2010.07.03 No Obs closed
2010.07.04 No Obs closed
2010.07.05 No Obs closed
2010.07.06 No Obs\ closed
2010.07.07 No Obs closed
2010.07.08 No obs closed
2010.07.09 No Obs
2010.07.10 No Obs
2010.07.11 No Obs
2010.07.12 09:32 05:59 8hr 27m NE AR fil N28E56 2 full-day PROM time: E. Romashets & T. Forbes
17:49 18:49 1 hr AR E56 N19 2 S PROM
2010.07.13 07:35 6:15 8hr40m NE AR fil N19E23 2 full-day PROM team: E. Romashets & T. Forbes
07:35 10:53 3 hr 3 flares E23 N19 2 S small ARfil
16:14 17:14 1 hr flare E23 N19 2 S
2010.07.14 07:50 17:53 10hr3m NC AR filament N19 E10 3 full-day ITP/Spanish-PROM
2010.07.15 07:56 19:02 11hr54m AR E01 N19 2 full-day ITP/Spanish-PROM
07:56 08:56 1 hr AR E01 N19 2 S ITP/Spanish-PROM
18:01 19:01 1 hr AR E01 N19 2 S ITP/Spanish-PROM
2010.07.16 07:57 18:44 10h47m NC Ar fil N19 W18 2 entire day PROM
2010.07.16 11:00 12:00 1 hr AR W18 N19 1 HD ITP/Spanish-PROM
2010.07.16 16:40 17:40 1 hr flare W18 N19 2 HD ITP/Spanish-PROM
2010.07.17 08:45 18:28 9hr43m NC AR fil N18W31 2 entire day PROM
2010.07.18 07:43 08:43 1 hr AR W56 N19 2 HD PROM
2010.07.18 17:16 18:16 1 hr eruption E56 N19 2 HD PROM
2010.07.18 18:20 19:20 1 hr AR W56 N19 2 HD PROM
2010.07.19 08:44 09:44 1 hr flare W53 N19 1 HD PROM/ITP small AR fil-2 key sites
2010.07.19 17:52 18:52 1 hr AR W53 N19 1 HD PROM/ITP small AR-fil w cross-over threads
2010.07.20 08:05 09:05 1 hr center disk E00 N02 2 FS PROM/ITP flows are unknown
09:08 10:08 1 hr center disk E02 N02 2 FS PROM/ITP knots and flows
11:00 12:00 1 hr small ARfil W62 N19 2 HI-10 PROM/ITP ARfil-select 4 flows
12:05 13:05 1 hr small ARfil W62 N19 2 HI-10 PROM/ITP ARfil-select 4 flows
13:07 14:07 1 hr temp brightening W62 E19 2 HI-10 PROM/ITP ARfil-select 4 flows
14:07 15:07 1 hr small ARfil W62 E19 2 FS PROM/ITP
15:30 16:00 1 hr small ARfil W62 N19 2 FS PROM/ITP
2010.07.21 09:09 10:09 1 hr AR E53 S27 2 HD PROM/ITP
2010.07.21 10:27 11:27 1 hr AR E53 S27 5 HD PROM/ITP
2010.07.21 17:07 18:07 1 hr flare E30 N12 2 HD PROM/ITP
2010.07.21 18:12 19:12 1 hr em AR E30 N12 2 HD PROM/ITP
2010.07.22 07:47 08:28 0.75 hr AR E40 S25 2 cluster PROM
2010.07.22 08:29 09:05 0.6 hr eAR E19 N12 3 HD PROM/ITP-small AR fils hi vel ends in plage *
2010.07.22 09:07 10:07 1 hr eAR E19 N12 3 HD PROM/ITP
2010.07.22 15:35 16:35 1 hr eAR E19 N12 4 HD PROM/ITP
2010.07.23 07:37 08:17 0.75 hr ARf E28 S22 2 cluster PROM
2010.07.23 08:18 08:50 0.5 hr eAR E07 N12 4 HD PROM/ITP-ARfil from above- a few nice threads
2010.07.23 10:08 10:16 0.1 hr eAR E07 N12 1 HD PROM/ITP
2010.07.24 08:49 09:49 1 hr AR E13 S23 1 HD PROM/ITP
2010.07.24 13:09 14:09 1 hr AR E14 S24 2 HD cont 1st hr prev day-ITPtime
2010.07.24 14:13 15:13 1 hr AR E15 S24 2 HD ITPtime
2010.07.24 15:19 16:19 1 hr AR E16 S26 2 HD ITPtime
2010.07.25 09:31 17:25 7hr54m Sunspot W00 S24 3 entire day cont targ ITP-PROM Team quicklook
2010.07.25 09:31 10:31 1 hr Sunspot W00 S24 3 HD PROM Team
2010.07.25 11:11 12:11 1 hr Sunspot W00 S24 3 HD PROM Team
2010.07.25 14:00 15:00 1 hr Sunspot W00 S24 3 HD PROM Team
2010.07.26 08:01 17:26 9h 25m AR filament W14S23 2-5 entire day cont targ PROM Team
2010.07.27 08:05 15:41 7h 36m AR W27 S22 1 entire day cont’ targ-PROM Team
2010.07.27 08:05 09:05 1 hr AR W27 S22 1 HD PROM Team
2010.07.27 09:23 10:23 1 hr AR W29 S24 2 HD PROM Team
2010.07.28 09:04 16:28 7h 24m AR W38 S24 2 entire day cont’ targ PROM Team
2010.07.29 08:20 15:11 6h 09m AR W47 S27 2 entire day cont’ targ PROM Team
2010.07.30 no obs. sahara dust PROM Team
2010.07.31 no obs. more sahara dust PROM Team
2010.08.01 08:33 08:57 best of 12m Fil+Sunspot in AR E33N16 1 HD PROM
2010.08.01 09:05 10:05 best of 12m Fil+Sunspot in AR E33N16 1 HD PROM
2010.08.01 11:02 15:46 best of 05m N fil in AR E33N20 2 HD PROM
2010.08.02 no obs. more sahara dust PROM Team
2010.08.03 11:49 14:23 2h 28m Fil+sunspot W61S28 entire day PROM Team
2010.08.04 no obs. more sahara dust PROM Team
2010.08.05 no obs. more sahara dust PROM Team
2010.08.06 12:06 13:06 best of 15m AR around spot E47 N08 3 HD PROM Team
13:16 14:16 best of 5m AR around spot E47 N10 3 HD
14:29 15:29 best of 15m AR around spot E48 N07 3 HD
15:50 16:50 best of 5m AR U-shaped fil E55 N11 3 HD
17:02 18:02 best of 5m AR U-shaped fil E55 N11 3 HD
2010.08.07 09:53 10:23 best of 15m AR around spot E35 N06 2 HD PROM
10:29 10:59 best of 15m U-shaped fil E39 N10 2 HD
11:31 12:31 best of 15m AR around spot E35 N06 2 HD
12:40 13:40 best of 15m U-shaped fil E39 N09 2 HD
13:58 14:58 best of 5m Q fil in NE E60 N20 2 HD
15:01 16:01 best of 5m Q fil in NE E62 N20 2 HD
16:16 17:16 best of 5m Q fil in NE E62 N20 2 HD
17:24 17:54 best of 5m Q fil in NE E62 N21 2 HD
18:01 18:03 all flare-AR field 1 above E37 N07 3 HD
18:04 18:34 all flare-AR field 2 above E45 N07 3 HD
2010.08.08 09:52 16:56 best of 5m Q fil in NE 7sets E40 N20 2 HD Alternating 2 close targets
2010.08.09 No obs
2010.08.10 12:20 12:30 none filament in NE E24 N28 3 HD heavy cloud cover
2010.08.11 No obs
2010.08.12 No obs
2010.08.13 No obs
2010.08.14 No obs
2010.08.15 No obs
2010.08.16 No obs
2010.08.17 08:16 18:09 none filament in SE E51 S19 4 HD PROM
2010.08.18 08:12 08:30 best of 2.5 min short Ifil E40 S18 3 HD PROM-Ifil internal structure
09:26 12:07 all filament in SE E40 S18 2 HD PROM
13:11 14:11 all filament in SE E40 S18 2 HD PROM
14:36 16:34 best of 5 min filament in SE E40 S18 2 HD PROM
2010.08.19 08:26 16:20 none upper part of filament in SE E24 S17 4 HD PROM
none lower part of filament in SE E51 S41 4 HD PROM
2010.08.20 08:00 10:11 all central part of filament in SE E31 S41 2 HI-9 PROM quicklook
2010.08.21 08:15 09:58 none filament in SE E17 S42 4 HD PROM
10:22 13:08 none filament in NE E76 N31 5 HD PROM
2010.08.22 07:57 10:08 all filament in S E01 S33 2 HD PROM
15:15 16:16 all filament in S W01 S32 2 HD PROM
2010.08.23 08:01 11:44 all filament in SW W12 S34 1 HD PROM
11:54 14:04 all filament in SW W10 S39 2 HD PROM
14:17 16:30 best of 5 min filament in SW W10 S39 2 HD PROM
2010.08.24 07:59 12:05 none filament in SW W23 S40 4 HD PROM

All DOT Data: second set of disks (2010 Aug 25 - Nov 24 in Consecutive Order)

Date Start End Specs Target Coord Se Status Remarks Movies
2010.08.25 08:06 17:54 none filament in SW W37 S40 3 HD PROM-Srivastava quicklook
2010.08.26 07:59 15:08 none filament in SW W54 S42 4 HD PROM-Srivastva quicklook
2010.08.27 10:42 18:40 none prominence in SW W90 S42 3 HD PROM-Muglach quicklook
2010.08.28 07:54 08:54 all filament in NE E23 N22 2 HD PROM_Muglach quicklook
2010.08.29 07:49 08:49 all filament in NE E12 N24 2 HD PROM-Muglach quicklook
2010.08.29 08:58 09:58 all filament in NC W01 N26 3 HD PROM-Muglach
2010.08.29 16:31 17:31 all filament in NC W05 N27 3 HD PROM-
2010.08.29 17:38 18:38 all filament in NC W06 N26 2 HD PROM-
2010.08.30 07:50 08:50 all filament in NW W15 N26 2 HD PROM-Muglach quicklook
2010.08.30 09:12 10:12 all filament in NC E09 N22 2 HD PROM-
2010.08.30 16:46 17:18 bad data filament in NC E06 N23 4 HD PROM-
2010.08.31 bad dark dark_001_1283245647*
2010.08.31 bad dark dark_002_1283245651*
2010.08.31 bad dark dark_003_1283245655*
2010.08.31 bad dark dark_004_1283245659*
2010.08.31 08:05 09:05 all filament in NC W03 N25 2 HD PROM-Muglach quicklook
2010.08.31 14:26 15:26 none filament in NW W21 N28 3 HD PROM-Muglach
2010.08.31 15:39 16:39 all filament in NW W32 N27 2 HD PROM
2010.08.31 16:55 17:55 all filament in NW W32 N28 2 HD PROM
2010.08.31 18:01 19:01 all filament in NW W34 N29 2 HD PROM
2010.09.01 07:39 08:39 all filament in AR11101 W21 N11 2 HD PROM-Muglach quicklook
2010.09.01 08:47 09:47 all filament in NW W19 N24 2 HD PROM
2010.09.01 11:28 12:42 none filament in NW W22 N27 4 HD PROM
2010.09.01 12:59 13:59 none filament in NW W24 N27 4 HD PROM
2010.09.01 14:17 15:17 none filament in NW W23 N27 3 HD PROM
2010.09.01 15:31 16:31 none filament in NC E00 N21 3 HD PROM
2010.09.02 07:43 08:13 all filament in AR11101 W37 N12 2 HD PROM-Muglach quicklook
2010.09.02 08:19 09:49 all filament in NW W42 N26 2 HD PROM
2010.09.02 09:02 10:02 none filament in NC W03 N18 3 HD PROM
2010.09.03 07:40 08:40 none filament in NW W15 N19 3 HD PROM-Muglach quicklook
2010.09.03 08:52 09:50 none filament in NW W54 N28 3 HD PROM
2010.09.04 08:08 09:08 none filament in NW W28 N19 3 HD PROM-Muglach quicklook
2010.09.04 09:21 10:21 none filament in NE E30 N17 3 HD PROM
2010.09.04 10:45 11:45 none filament in NW W29 N13 4 HD PROM
2010.09.05 07:40 08:40 all filament in NE E18 N19 2 HD PROM-Muglach quicklook
2010.09.05 08:50 09:40 none filament in NE E19 N20 4 HD PROM
2010.09.05 10:08 11:08 none filament in NE E18 N19 4 HD PROM
2010.09.05 14:42 15:42 all filament in NE E15 N21 3 HD PROM
2010.09.05 15:56 16:56 all filament in NE E16 N21 3 HD PROM
2010.09.05 17:04 18:04 all filament in NE E16 N22 2 HD PROM
2010.09.07 07:33 07:46 none filament in NC W08 N21 2 HD PROM-Muglach+ quicklook
2010.09.07 07:47 08:46 all filament in NC W08 N21 2 HD +Schmieder/THEMIS
2010.09.07 08:57 09:57 none filament in NC W12 N18 4 HD PROM-
2010.09.07 10:04 11.04 none filament in NC W10 N20 4 HD PROM-
2010.09.07 11:21 12.21 none filament in NC W11 N20 4 HD PROM-
2010.09.07 14:47 15.47 none filament in NC W10 N20 3 HD PROM-
2010.09.07 15:52 16.52 none filament in NC W09 N19 3 HD PROM-
2010.09.07 17:00 18.00 all filament in NC W10 N22 2 HD PROM-
2010.09.08 07:42 08.42 all filament in NW W20 N22 2 HD PROM-Muglach_ quicklook
2010.09.08 08:46 09.46 all filament in NW W23 N19 2 HD +Schmieder-THEMIS
2010.09.08 09:52 10.45 all filament in NW W24 N18 3 HD PROM-
2010.09.09 07:51 08.16 all filament in NW W35 N21 2 HD PROM- quicklook
2010.09.09 08:21 09.21 all forming fil.chan. W35 N21 3 HI-5 PROM-Martin/Muglach
2010.09.09 09:32 10.32 none Int. filament E17 N30 3 PROM-Muglach
2010.09.09 10:43 11.43 none Int. filament E17 N30 4 +Schmieder-THEMIS
2010.09.09 12:56 13.56 none Int. filament E18 N28 4 PROM-
2010.09.09 14:18 14.48 none new EFR in SC E03 S34 4 PROM-
2010.09.09 15:00 15.30 none new EFR in SC E03 S32 4 PROM-
2010.09.09 15:46 16.16 all new EFR in SC E04 S33 3 HI-4 PROM-
2010.09.09 16:31 17.31 all new EFR in SC E04 S32 2 HI-4 PROM-
2010.09.09 17:37 18.07 all new EFR in SC E04 S33 2 HI-4 PROM-
2010.09.09 18:15 18.45 all new EFR in SC E03 S31 2 HI-4 PROM-
2010.09.10 07:40 08.10 all filament in NC E04 N31 2 HD PROM-Muglach quicklook
2010.09.10 08:17 09.17 all filament in NC E04 N31 2 HD +Schmieder-THEMIS
2010.09.10 09:24 10.24 all filament in NC E05 N32 2 HD +Hinode in part
2010.09.10 10:30 11.30 all filament in NC E06 N35 2 HD PROM-
2010.09.10 11:41 12.41 all filament in NC E06 N34 2 HD PROM-
2010.09.10 11:41 12.41 all filament in NC E06 N34 2 HD PROM-
2010.09.10 12:52 13:52 none filament in NC E07 N34 2 HD PROM-
2010.09.10 13:57 14:57 none filament in NC E08 N33 2 HD PROM-
2010.09.10 15:06 16:06 none filament in NC E02 N33 2 HD PROM-
2010.09.10 16:29 17:29 none filament in NC E02 N34 2 HD PROM-
2010.09.10 17:37 18:37 all filament in NC E01 N34 2 HD PROM-
2010.09.11 07:44 08:44 all filament in NC W07 N34 2 HD PROM-Muglach quicklook
2010.09.11 08:49 09:49 all filament in NC W11 N30 2 HD +Schmieder-THEMIS
2010.09.11 09:54 10:54 all filament in NC W08 N33 2 HD +Hinode in part
2010.09.11 11:00 12:00 all filament in NC W12 N30 2 HD PROM-
2010.09.11 12:09 13:09 all filament in NC W11 N31 2 HD PROM-
2010.09.11 13:19 14:19 all filament in NC W08 N31 2 HD PROM-
2010.09.11 14:28 15:28 none filament in NC W13 N31 2 HD PROM-
2010.09.11 15:32 16:02 all brightpoint W W30 N23 2 HD PROM-
2010.09.13 07:59 08:14 none flamment in NC W02 N31 4 HD PROM quicklook
2010.09.13 08:31 08:54 none filament in NC W02 N32 3 HD PROM
2010.09.13 09:22 10:09 none filament in NC E01 N33 3 HD PROM
2010.09.13 10:46 11:46 none filament in NC E01 N33 3 HD PROM
2010.09.13 11:52 12:52 none filament in NC W01 N34 3 HD PROM
2010.09.13 12:58 13:58 all filament in NC W01 N34 3 DONE PROM
2010.09.16 14:28 15:00 none filament in S E14 S22 4 HD PROM quicklook
2010.09.16 15:00 17:33 none filament in S E14 S22 4 HD PROM
2010.09.17 07:46 08:56 all filament in S E17 S32 1 HD PROM quicklook
2010.09.17 08:43 09:43 all filament in S E16 S33 1 HD PROM
2010.09.17 09:46 10:46 none filament in S E16 S33 3 HD PROM
2010.09.17 11:10 12:10 none filament in S E15 S31 3 HD PROM
2010.09.17 14:32 15:32 none AR filament in S W01 S22 3 HD PROM
2010.09.17 15:51 16:51 none AR filament in S W04 S21 3 HD PROM
2010.09.17 18:03 18:15 all AR filament in S W03 S20 2 HD PROM
2010.09.17 18:16 18:35 all flare in S E04 S18 2 HD PROM
2010.09.18 10:34 11:08 none AR filament in S W15 S21 4 HD PROM quicklook
2010.09.19 07:56 08:56 all AR filament in SW W26 S20 2 HD PROM quicklook
2010.09.19 09:46 10:16 all(mosaic) AR filament in SW W27 S25 2 HD PROM
2010.09.19 10:57 11:32 all(mosaic) AR filament in SE E53 S38 2 HD PROM
2010.09.19 12:19 13:19 all AR filament in SE E45 S30 2 HD PROM
2010.09.19 13:28 14:28 all AR filament in SW W30 S21 2 HD PROM
2010.09.19 14:32 14:52 all AR filament in SW W27 S20 2 HD PROM
2010.09.19 15:18 15:32 all(mosaic) AR filament in SW W29 S14 2 HD PROM
2010.09.19 15:40 16:40 all AR filament in SW W32 S19 2 HD PROM
2010.09.19 16:47 17:17 all AR filament in SW W30 S18 2 HD PROM
2010.09.20 07:50 08:50 all AR filament in SW W40 S18 2 in progress PROM quicklook
2010.09.20 09:13 09:38 none (mos) AR filament in SW W40 S21 4 0 PROM-Martin
2010.09.21 13:24 15:28 none practice mosaicing 4 0 PROM-Martin quicklook
2010.09.22 No Obs Raining PROM-Martin
2010.09.23 No Obs PROM-Martin
2010.09.24 No Obs PROM-Marin
2010.09.25 No Obs PROM-Martin
2010.09.26 No Obs PROM-Martin
2010.09.27 13:46 17:04 best set mosaics of big AR E09N16 1 DONE PROM-Martin quicklook
2010.09.27 13:46 17:04 all mosaics of big AR E09N16 1 med best set above for van Ballegooijen
2010.09.28 08:50 09:58 all mosaics of big AR ? 2 low PROM-Martin quicklook
2010.09.28 08:50 09:58 best set mosaics of big AR ? 2 HI-2 PROM
2010.09.28 10:22 10:48 all EFR - new AR ? 2 med PROM Mosaics and then EFR short series
2000.09.29 15:25 17:32 1 best set mosaics-AR+between ~W37N21 2 low PROM-Martin quicklook
2010.09.30 09:14 14:05 1 best set mosaics-AR+between W44N21 2 low PROM-Martin quicklook
2010.10.01 09:35 13:10 all mosaics of Qfil W03N22 2 med PROM-Martin 1st mosaic on fil quicklook
2010.10.02 No Obs PROM-Martin
2010.10.03 No Obs PROM-Martin
2010.10.04 09:18 10:18 none I+AR fils-NWnlimb E090N26 2 FS time from ql movie, PROM quicklook
2010.10.04 10:41 17:16 none fils-NW nlimb W70N25 3 FS flare near limb-preflare&postflare changes
2010.10.05 09:17 16:25 all Qfil-NE E50N34 1 HI-2 PROM-for Engvold&Lin quicklook-
2010.10.06 No Obs Raining PROM
2010.10.07 No Obs Raining PROM
2010.10.08 No Obs Humidity, clouds PROM
2010.10.09 15:58 16:21 all Ha-calibration 3 PROM quicklook
2010.10.09 16:50 17:51 none Prd,ES-limb,AR11112 E76S30 3 PROM
2010.10.10 15:36 16:06 none Prd,ES-limb,AR11112 E80S34 3 PROM
2010.10.11 No Obs Raining PROM
2010.10.12 No Obs High humidity PROM
2010.10.13 No Obs Raining, Clouds PROM
2010.10.17 12:12 16:58 mosaic Fil + AR with EFR PROM quicklook
2010.10.23 15:12 15:42 none prom on the disk W90N63 3 PROM quicklook
2010.10.23 15:54 16:19 all fil ch, SE of AR11117 E31N20 2 PROM
2010.10.26 09:44 10:44 none, no data W prom W90S07 4 PROM quicklook
2010.10.26 10:48 11:48 none W prom W90S07 4 PROM
2010.10.26 12:13 13:13 none W prom W90S07 4 PROM
2010.10.26 13:14 14:14 none W prom W90S07 4 PROM
2010.10.27 09:22 10:22 none W prom W90S04 4 PROM quicklook
2010.10.27 10:31 11:31 none W prom W90S04 4 PROM
2010.10.27 11:50 12:50 none W prom W90S04 4 PROM
2010.10.27 12:54 13:54 none W prom W90S04 4 PROM
2010.10.27 16:06 17:06 none W prom W90S04 4 PROM
2010.10.28 09:24 10:24 none W prom W90S03 4 PROM quicklook
2010.10.28 10:31 11:31 none W prom W90S03 4 PROM
2010.10.28 11:32 12:32 none W prom W90S03 4 PROM
2010.10.28 12:51 13:10 none mos W prom W90S03 4 PROM
2010.10.28 13:18 14:18 none W prom W90S03 4 PROM
2010.10.28 14:28 15:28 none W prom W90S03 4 PROM
2010.10.28 15:35 16:35 none W prom W90S03 4 PROM
2010.10.30 08:53 10:32 all S prom E90S58 2 PROM quicklook
2010.10.30 10:43 11:03 all NE fil, mos E29N30 2 PROM
2010.10.30 10:08 11:18 all pol cr, mos W20N49 2 PROM
2010.10.30 11:24 11:44 all ar fil, mos W60N22 2 PROM
2010.10.30 11:44 12:07 all fil ch W28N37 2 PROM
2010.10.30 12:07 13:07 all fil ch W28N37 2 PROM
2010.10.30 13:14 14:14 all fil ch W32N37 2 PROM
2010.10.30 14:20 15:20 all fil ch W32N38 2 PROM
2010.10.30 15:30 16:30 all fil ch W34N37 2 PROM
2010.10.30 16:39 17:39 all fil ch W33N37 2 PROM
2010.10.31 09:01 10:38 all SE prom E63S63 2 PROM quicklook
2010.10.31 10:47 11:17 all SE prom E63S63 2 PROM
2010.10.31 11:25 11:40 all NW prom, mos W90N34 2 PROM
2010.10.31 11:50 12:50 all NE prom E90N53 2 PROM
2010.10.31 13:08 14:08 none NW prom W90N33 3 PROM
2010.10.31 14:36 15:36 none NW prom W90N33 3 PROM
2010.10.31 15:43 16:43 none NW prom W90N33 3 PROM
2010.10.31 16:49 17:49 none NW prom W90N33 3 PROM
2010.11.01 09:02 10:02 none NW prom W90N30 3 PROM quicklook
2010.11.01 10:22 11:22 none NW cloud W90N23 3 PROM
2010.11.01 11:24 12:24 none NW cloud W90N23 3 PROM
2010.11.01 12:41 13:41 none NW cloud W90N22 3 PROM
2010.11.01 13:49 13:59 none NW prm W90N34 3 PROM
2010.11.01 14:24 15:24 none Sshape fil E16N18 3 PROM
2010.11.01 15:38 16:38 none Sshape fil E16N18 3 PROM
2010.11.02 09:29 10:29 none S prm E23S58 3 PROM quicklook
2010.11.02 10:38 11:38 none S prm E23S58 3 PROM
2010.11.02 11:51 12:51 none S prm E22S59 3 PROM
2010.11.02 16:06 16:36 none SEE prm E90S23 3 PROM
2010.11.02 16:43 17:43 none NEE prm E90N15 4 PROM
2010.11.05 09:33 10:33 none SE prm E90S37 3 PROM quicklook
2010.11.05 10:54 11:54 none SE prm cl E90S36 3 PROM
2010.11.05 12:26 13:26 none NE prm E90N32 3 PROM
2010.11.05 13:42 14:05 none NE prm, mos E90N32 3 PROM
2010.11.05 14:08 15:08 none NE prm E90N30 3 PROM
2010.11.05 15:23 16:00 none NE prm E90N28 3 PROM
2010.11.05 16:07 17:07 none NE prm on d E90N28 3 PROM
2010.11.05 17:14 17:44 none NE prm E90N28 3 PROM
2010.11.06 09:04 10:04 none NE prm E90N32 3 PROM quicklook
2010.11.06 10:15 11:15 none NE prm od d E75N27 3 PROM
2010.11.07 08:51 09:51 all C new AR W08N14 1 PROM quicklook
2010.11.07 09:56 10:56 all C new AR W09N12 1 PROM
2010.11.07 10:58 11:58 all C new AR W10N12 1 PROM
2010.11.07 12:02 12:30 all C new AR W10N13 2 PROM
2010.11.08 08:56 09:56 none SE eruptive prom E90S30 3 PROM quicklook
2010.11.08 10:16 11:16 none SE erupting prom E90S30 3 PROM
2010.11.10 10:18 11:18 none E prm E90S05 3 PROM quicklook
2010.11.10 11:42 12:42 all NE ch E47N13 2 PROM-goals
2010.11.10 12:52 13:00 all NE ch, mos E47N13 2 channel+filament formation
2010.11.10 13:14 13:22 all NE fil, mos E36N38 2 PROM-
2010.11.10 13:31 14:31 none NE ch E47N13 3 PROM-
2010.11.10 14:34 15:28 none NE ch E47N13 3 PROM-
2010.11.11 09:43 10:43 all NC fil ch E34N13 2 PROM-goals quicklook
2010.11.11 10:53 11:13 all NE and NC ch, mos E38N15 2 channel+filament formation
2010.11.11 11:21 12:21 all NC fil ch E34N12 2 PROM
2010.11.11 12:25 13:25 all NC fil ch E34N13 2 PROM
2010.11.11 13:29 14:29 all NC fil ch E34N12 2 PROM
2010.11.11 14:48 15:18 all NE and NC ch, mos E38N15 2 PROM
2010.11.11 15:33 16:33 all NE and NC ch, mos E38N15 2 PROM
2010.11.11 16:48 17:30 all NE and NC ch, mos E38N15 2 PROM
2010.11.12 09:42 10:58 all NE and NC ch, mos E21N14 2 PROM goals quicklook
2010.11.12 11:16 12:22 all NE and NC ch, mos E21N14 2 channel&filament formation
2010.11.12 12:35 13:41 none NE and NC ch, mos E21N14 2 PROM
2010.11.12 13:47 14:17 none NE and NC ch, mos E21N14 2 PROM
2010.11.12 15:49 16:57 all NE and NC ch, mos E21N14 2 PROM
2010.11.12 17:03 17:36 all NE and NC ch, mos E21N14 2 PROM
2010.11.13 09:20 09:28 all two C ARs, mos E16N15 2 PROM goals quicklook
2010.11.13 09:31 10:37 all two C ARs, mos E14N17 2 channel&filament formation mosaic movies
2010.11.13 10:52 11:15 all two C ARs, mos E13N17 2 PROM
2010.11.13 11:16 12:22 all two C ARs, mos E10N15 2 PROM
2010.11.13 12:37 13:45 all two C ARs, mos E10N15 2 PROM
2010.11.13 13:49 14:56 all two C ARs, mos E11N15 2 PROM
2010.11.13 15:05 16:11 all two C ARs, mos E11N15 2 PROM
2010.11.13 16:18 16:58 all two C ARs, mos E11N15 1 PROM
2010.11.14 09:12 10:12 all ARs 11124/5, mos E01N16 2 PROM goals quicklook
2010.11.14 10:21 10:37 all ARs 11124/5, mos E01N16 2 channel&filament formation
2010.11.14 10:42 11:12 none ARs 11124/5, mos E01N17 3 PROM
2010.11.16 09:16 10:24 none ARs 11124/5, mos W34N16 3 PROM goals quicklook
2010.11.16 10:28 10:54 none ARs 11124/5, mos W34N16 3 channel&filament formation
2010.11.16 11:02 12:00 none ARs 11124/5, mos W27N18 3 PROM
2010.11.16 12:15 13:23 none ARs 11124/5, mos W31N17 3 PROM
2010.11.16 17:00 17:30 none ARs 11124/5, mos W27N18 3 PROM
2010.11.17 10:08 11:08 none ARs 11124/5, mos W40N18 3 PROM goals quicklook
2010.11.17 11:36 12:17 none ARs 11124/5, mos W40N19 3 channel&filament formation
2010.11.17 13:37 14:15 none ARs 11124/5, mos W40N19 3
2010.11.17 15:01 15:57 none ARs 11124/5, mos W40N19 3
2010.11.17 16:24 17:07 none ARs 11124/5, mos W44N18 3
2010.11.18 09:08 10:17 none ARs 11124/5, mos W54N18 3 PROM goals quicklook
2010.11.18 10:33 11:40 none ARs 11124/5, mos W54N18 3 channel&filament formation
2010.11.18 11:45 12:51 none ARs 11124/5, mos W54N19 3
2010.11.18 14:23 15:20 none ARs 11124/5, mos W54N19 3
2010.11.18 15:24 16:30 none ARs 11124/5, mos W54N19 3
2010.11.18 16:51 17:30 none ARs 11124/5, mos W54N19 3
2010.11.19 13:24 14:30 none ARs 11124/5, mos W67N18 3 PROM goals quicklook
2010.11.19 14:41 15:41 none ARs 11124/5 W73N21 3 channel&filament formation
2010.11.19 15:51 16:51 none ARs 11124/5 W71N21 3
2010.11.19 17:08 17:44 all ARs 11124/5 W72N21 2
2010.11.20 09:41 10:16 none ARs 11124/5, mos W70N17 3 PROM goals quicklook
2010.11.20 10:24 11:24 none ARs 11124/5 prm W90N17 3 channel&filament formation
2010.11.20 11:55 12:57 none ARs 11124/5, mos W70N17 3
2010.11.22 09:38 09:54 none ARs 11127, mos E04N23 3 PROM goals quicklook
2010.11.22 09:59 11:12 none ARs 11124/5 prm W90N18 3 channel&filament formation
2010.11.22 11:14 12:20 none ARs 11124/5, mos W90N18 3
2010.11.24 all mos AR fil NW 3 quicklook
2010.11.24 all mos AR fil NW 3 mosaic movies